Shineimaru — JD2899 — position and weather

sailwx.info

Track history (hours):
 
Tides and Currents Weather Stations Pressure Air Temp Water Temp Dewpoint Dewpoint Depression Visibility Wind Speed Wind Dir Waves Ship Positions

Shineimaru

Last reported at 2018-Apr-22 23:09 UTC. Time now 2018-Apr-23 13:30 UTC.
Position N 34°43' E 137°14'.

Length 74 m; draft 4 m.

Type: Cargo ship. MMSI: 431000892.

Date/timePositionNaut miles runAvg speedWind from/ knotsBaromVisibWave heightAir tempDewpointWater temp
2018-Apr-22 23:09N 34°43' E 137°14'0 0.1
2018-Apr-22 22:58N 34°43' E 137°14'0 0.0
2018-Apr-22 22:20N 34°43' E 137°14'0 0.0
2018-Apr-22 21:49N 34°43' E 137°14'0 0.0
2018-Apr-22 21:14N 34°43' E 137°14'0 0.0
2018-Apr-22 18:17N 34°43' E 137°14'0 0.0
2018-Apr-22 18:00N 34°43' E 137°14'0 0.0
2018-Apr-22 16:30N 34°43' E 137°14'0 0.0
2018-Apr-22 15:49N 34°43' E 137°14'0 0.0
2018-Apr-22 15:18N 34°43' E 137°14'0 0.0
2018-Apr-22 14:55N 34°43' E 137°14'0 0.0
2018-Apr-22 14:30N 34°43' E 137°14'0 0.0
2018-Apr-22 13:59N 34°43' E 137°14'0 0.0
2018-Apr-22 13:30N 34°43' E 137°14'0 0.1
2018-Apr-22 12:41N 34°43' E 137°14'0 0.0
2018-Apr-22 04:46N 34°43' E 137°14'0 0.0
2018-Apr-22 04:15N 34°43' E 137°14'0 0.0
2018-Apr-22 04:00N 34°43' E 137°14'0 0.0
2018-Apr-22 03:21N 34°43' E 137°14'0 0.0
2018-Apr-22 02:56N 34°43' E 137°14'0 0.0
2018-Apr-21 18:56N 34°43' E 137°14'0 0.0
2018-Apr-21 17:24N 34°43' E 137°14'0 0.0
2018-Apr-21 16:53N 34°43' E 137°14'0 0.0
2018-Apr-21 16:30N 34°43' E 137°14'0 0.0
2018-Apr-21 16:00N 34°43' E 137°14'0 0.0
2018-Apr-21 15:18N 34°43' E 137°14'0 0.0
2018-Apr-21 14:59N 34°43' E 137°14'0 0.0
2018-Apr-21 14:30N 34°43' E 137°14'0 0.0
2018-Apr-21 13:59N 34°43' E 137°14'0 0.0
2018-Apr-21 13:28N 34°43' E 137°14'0 0.0
2018-Apr-21 12:44N 34°43' E 137°14'0 0.0
2018-Apr-21 12:29N 34°43' E 137°14'0 0.0
2018-Apr-21 04:51N 34°43' E 137°14'0 0.0
2018-Apr-21 04:27N 34°43' E 137°14'2 5.0
2018-Apr-21 03:59N 34°42' E 137°11'511.1
2018-Apr-21 03:30N 34°40' E 137°05'510.5
2018-Apr-21 03:00N 34°38' E 136°59'9 8.1
2018-Apr-21 01:51N 34°33' E 137°09'411.2
2018-Apr-21 01:30N 34°34' E 137°14'5111.6
2018-Apr-20 21:06N 34°33' E 138°16'2711.6
2018-Apr-20 18:47N 34°35' E 138°49'511.3
2018-Apr-20 18:21N 34°36' E 138°55'1610.9
2018-Apr-20 16:55N 34°47' E 139°08'2111.0
2018-Apr-20 15:01N 34°60' E 139°28'111.1
2018-Apr-20 14:55N 35°00' E 139°29'511.8
2018-Apr-20 14:30N 35°03' E 139°34'611.8
2018-Apr-20 14:00N 35°06' E 139°40'611.6
2018-Apr-20 13:30N 35°10' E 139°45'611.5
2018-Apr-20 13:00N 35°16' E 139°46'611.9
2018-Apr-20 12:30N 35°21' E 139°42'510.7
2018-Apr-20 12:00N 35°26' E 139°46'611.4
2018-Apr-20 11:30N 35°29' E 139°51'611.3
2018-Apr-20 11:00N 35°34' E 139°56'510.6
2018-Apr-20 10:30N 35°38' E 139°59'1 0.0
2018-Apr-19 05:30N 35°39' E 139°59'510.4
2018-Apr-19 05:01N 35°35' E 140°03'3 5.6
2018-Apr-19 04:29N 35°34' E 140°07'0 0.0
2018-Apr-19 04:00N 35°34' E 140°07'0 0.0
2018-Apr-19 03:30N 35°34' E 140°07'0 0.0
2018-Apr-19 03:00N 35°34' E 140°07'0 0.0
2018-Apr-19 02:30N 35°34' E 140°07'0 0.0
2018-Apr-19 02:00N 35°34' E 140°07'0 0.0
2018-Apr-19 01:30N 35°34' E 140°07'0 0.0
2018-Apr-19 01:00N 35°34' E 140°07'0 0.0
2018-Apr-19 00:30N 35°34' E 140°07'0 0.0
2018-Apr-19 00:00N 35°34' E 140°07'0 0.0
2018-Apr-18 23:30N 35°34' E 140°07'0 0.0
2018-Apr-18 23:01N 35°34' E 140°07'2 3.3
2018-Apr-18 22:30N 35°35' E 140°05'1 2.9
2018-Apr-18 22:00N 35°35' E 140°04'0 0.0
2018-Apr-18 21:30N 35°35' E 140°04'0 0.0
2018-Apr-18 21:00N 35°35' E 140°04'0 0.0
2018-Apr-18 20:30N 35°35' E 140°04'0 0.2
2018-Apr-18 20:00N 35°35' E 140°04'510.8
2018-Apr-18 19:30N 35°32' E 139°58'611.5
2018-Apr-18 19:00N 35°29' E 139°52'611.6
2018-Apr-18 18:30N 35°25' E 139°47'611.9
2018-Apr-18 18:00N 35°19' E 139°44'611.2
2018-Apr-18 17:30N 35°14' E 139°47'511.0
2018-Apr-18 17:00N 35°09' E 139°46'611.2
2018-Apr-18 16:30N 35°04' E 139°42'611.1
2018-Apr-18 16:00N 35°00' E 139°37'612.1
2018-Apr-18 15:30N 34°57' E 139°31'612.3
2018-Apr-18 15:00N 34°53' E 139°25'712.3
2018-Apr-18 14:28N 34°49' E 139°18'612.2
2018-Apr-18 13:59N 34°46' E 139°13'611.9
2018-Apr-18 13:30N 34°42' E 139°07'611.6
2018-Apr-18 12:58N 34°38' E 139°01'511.2
2018-Apr-18 12:30N 34°35' E 138°56'510.7
2018-Apr-18 12:01N 34°34' E 138°50'610.6
2018-Apr-18 11:28N 34°34' E 138°43'711.1
2018-Apr-18 10:50N 34°33' E 138°34'611.1
2018-Apr-18 10:16N 34°32' E 138°26'411.0
2018-Apr-18 09:53N 34°32' E 138°21'410.5
2018-Apr-18 09:30N 34°31' E 138°17'610.1
2018-Apr-18 08:56N 34°31' E 138°10'611.1
2018-Apr-18 08:24N 34°30' E 138°03'6510.4
2018-Apr-18 02:11N 34°10' E 136°48'3 9.2
2018-Apr-18 01:52N 34°09' E 136°45'4 8.6
2018-Apr-18 01:25N 34°07' E 136°41'14 9.0
2018-Apr-17 23:52N 34°00' E 136°26'75 8.1
2018-Apr-17 14:41N 33°43' E 134°59'210.3
2018-Apr-17 14:30N 33°43' E 134°57'155 6.6
2018-Apr-16 14:51N 33°19' E 131°53'513.5
2018-Apr-16 14:29N 33°24' E 131°51'912.9
2018-Apr-16 13:47N 33°32' E 131°48'413.4
2018-Apr-16 13:30N 33°36' E 131°46'713.4
2018-Apr-16 13:00N 33°41' E 131°41'713.3
2018-Apr-16 12:30N 33°44' E 131°34'612.4
2018-Apr-16 12:00N 33°46' E 131°27'612.2
2018-Apr-16 11:30N 33°48' E 131°20'611.8
2018-Apr-16 11:01N 33°50' E 131°13'510.8
2018-Apr-16 10:30N 33°54' E 131°09'4 8.6
2018-Apr-16 10:00N 33°58' E 131°10'0 0.0
2018-Apr-16 09:30N 33°58' E 131°10'0 0.0
2018-Apr-16 09:00N 33°58' E 131°10'0 0.0
2018-Apr-16 08:30N 33°58' E 131°10'0 0.0
2018-Apr-16 08:00N 33°58' E 131°10'0 0.0
2018-Apr-16 07:30N 33°58' E 131°10'0 0.0
2018-Apr-16 07:01N 33°58' E 131°10'0 0.0
2018-Apr-16 06:28N 33°58' E 131°10'0 0.0
2018-Apr-16 06:00N 33°58' E 131°10'0 0.0
2018-Apr-16 05:30N 33°58' E 131°10'0 0.0
2018-Apr-16 05:00N 33°58' E 131°10'0 0.0
2018-Apr-16 04:30N 33°58' E 131°10'0 0.0
2018-Apr-16 04:00N 33°58' E 131°10'0 0.0
2018-Apr-16 03:31N 33°58' E 131°10'0 0.0
2018-Apr-16 03:00N 33°58' E 131°10'0 0.0
2018-Apr-16 02:30N 33°58' E 131°10'0 0.0
2018-Apr-16 02:01N 33°58' E 131°10'0 0.0
2018-Apr-16 01:30N 33°58' E 131°10'0 0.0
2018-Apr-16 01:00N 33°58' E 131°10'0 0.0
2018-Apr-16 00:30N 33°58' E 131°10'0 0.0
2018-Apr-16 00:00N 33°58' E 131°10'0 0.0
2018-Apr-15 23:29N 33°58' E 131°10'0 0.0
2018-Apr-15 23:00N 33°58' E 131°10'0 0.0
2018-Apr-15 22:30N 33°58' E 131°10'0 0.0
2018-Apr-15 22:00N 33°58' E 131°10'0 0.0
2018-Apr-15 21:30N 33°58' E 131°10'0 0.0
2018-Apr-15 21:00N 33°58' E 131°10'0 0.0
2018-Apr-15 20:31N 33°58' E 131°10'0 0.0
2018-Apr-15 20:00N 33°58' E 131°10'0 0.0
2018-Apr-15 19:31N 33°58' E 131°10'0 0.0
2018-Apr-15 19:01N 33°58' E 131°10'0 0.0
2018-Apr-15 18:30N 33°58' E 131°10'0 0.0
2018-Apr-15 18:00N 33°58' E 131°10'0 0.0
2018-Apr-15 17:30N 33°58' E 131°10'0 0.0
2018-Apr-15 17:01N 33°58' E 131°10'0 0.0
2018-Apr-15 16:30N 33°58' E 131°10'0 0.0
2018-Apr-15 16:00N 33°58' E 131°10'0 0.0
2018-Apr-15 15:31N 33°58' E 131°10'0 0.0
2018-Apr-15 15:01N 33°58' E 131°10'0 0.0
2018-Apr-15 14:30N 33°58' E 131°10'0 0.0
2018-Apr-15 14:00N 33°58' E 131°10'0 0.0
2018-Apr-15 13:30N 33°58' E 131°10'0 0.0
2018-Apr-15 13:00N 33°58' E 131°10'0 0.0
2018-Apr-15 12:30N 33°58' E 131°10'0 0.0
2018-Apr-15 12:00N 33°58' E 131°10'0 0.0
2018-Apr-15 11:30N 33°58' E 131°10'0 0.0
2018-Apr-15 11:00N 33°58' E 131°10'0 0.0
2018-Apr-15 10:31N 33°58' E 131°10'0 0.0
2018-Apr-15 10:00N 33°58' E 131°10'0 0.0
2018-Apr-15 09:30N 33°58' E 131°10'0 0.0
2018-Apr-15 09:00N 33°58' E 131°10'0 0.0
2018-Apr-15 08:31N 33°58' E 131°10'0 0.0
2018-Apr-15 08:00N 33°58' E 131°10'2 4.8
2018-Apr-15 07:31N 33°57' E 131°08'1 2.2
2018-Apr-15 07:00N 33°55' E 131°08'0 0.0
2018-Apr-15 06:30N 33°55' E 131°08'0 0.0
2018-Apr-15 06:00N 33°55' E 131°08'0 0.1
2018-Apr-15 05:30N 33°55' E 131°08'0 0.1
2018-Apr-15 05:01N 33°55' E 131°08'1 1.3
2018-Apr-15 04:30N 33°55' E 131°09'510.3
2018-Apr-15 04:00N 33°52' E 131°14'510.4
2018-Apr-15 03:30N 33°51' E 131°20'510.6
2018-Apr-15 03:00N 33°50' E 131°26'510.8
2018-Apr-15 02:30N 33°48' E 131°32'510.7
2018-Apr-15 02:00N 33°47' E 131°39'611.0
2018-Apr-15 01:30N 33°46' E 131°45'611.2
2018-Apr-15 01:00N 33°45' E 131°52'1810.7
2018-Apr-14 23:19N 33°43' E 132°13'411.1
2018-Apr-14 22:57N 33°45' E 132°18'511.1
2018-Apr-14 22:29N 33°46' E 132°24'611.0
2018-Apr-14 21:56N 33°49' E 132°30'510.9
2018-Apr-14 21:30N 33°52' E 132°35'610.8
2018-Apr-14 20:58N 33°56' E 132°40'511.0
2018-Apr-14 20:30N 33°60' E 132°44'8610.2
2018-Apr-14 12:08N 34°21' E 134°25'111.6
2018-Apr-14 12:00N 34°20' E 134°26'711.8
2018-Apr-14 11:27N 34°18' E 134°33'611.6
2018-Apr-14 10:57N 34°14' E 134°39'912.5
2018-Apr-14 10:13N 34°07' E 134°46'212.1
2018-Apr-14 10:00N 34°05' E 134°48'712.3
2018-Apr-14 09:26N 33°60' E 134°54'612.2
2018-Apr-14 08:56N 33°55' E 134°59'16810.1
2018-Apr-13 16:17N 34°34' E 138°16'2711.3
2018-Apr-13 13:53N 34°35' E 138°49'510.2
2018-Apr-13 13:26N 34°36' E 138°54'1710.7
2018-Apr-13 11:47N 34°48' E 139°10'810.9
2018-Apr-13 11:02N 34°53' E 139°17'1 9.7
2018-Apr-13 10:56N 34°54' E 139°18'6 9.3
2018-Apr-13 10:17N 34°57' E 139°24'3 9.5
2018-Apr-13 10:00N 34°59' E 139°26'5 9.4
2018-Apr-13 09:29N 35°02' E 139°31'510.2
2018-Apr-13 09:00N 35°05' E 139°36'611.3
2018-Apr-13 08:30N 35°08' E 139°42'510.9
2018-Apr-13 08:00N 35°13' E 139°44'1 2.5
2018-Apr-13 07:30N 35°13' E 139°43'0 0.0
2018-Apr-13 06:59N 35°13' E 139°43'0 0.0
2018-Apr-13 06:30N 35°13' E 139°43'0 0.0
2018-Apr-13 06:00N 35°13' E 139°43'0 0.0
2018-Apr-13 05:30N 35°13' E 139°43'0 0.0
2018-Apr-13 05:00N 35°13' E 139°43'0 0.0
2018-Apr-13 04:30N 35°13' E 139°43'0 0.0
2018-Apr-13 04:00N 35°13' E 139°43'0 0.0
2018-Apr-13 03:30N 35°13' E 139°43'0 0.0
2018-Apr-13 03:00N 35°13' E 139°43'0 0.0
2018-Apr-13 02:30N 35°13' E 139°43'0 0.0
2018-Apr-13 02:00N 35°13' E 139°43'0 0.0
2018-Apr-13 01:30N 35°13' E 139°43'0 0.0
2018-Apr-13 01:00N 35°13' E 139°43'0 0.0
2018-Apr-13 00:30N 35°13' E 139°43'0 0.0
2018-Apr-13 00:00N 35°13' E 139°43'0 0.0
2018-Apr-12 23:30N 35°13' E 139°43'  
Track history (hours):
 
Tides and Currents Weather Stations Pressure Air Temp Water Temp Dewpoint Dewpoint Depression Visibility Wind Speed Wind Dir Waves Ship Positions

Shineimaru

Last reported at 2018-Apr-22 23:09 UTC. Time now 2018-Apr-23 13:30 UTC.
Position N 34°43' E 137°14'.

Length 74 m; draft 4 m.

Type: Cargo ship. MMSI: 431000892.

Date/timePositionNaut miles runAvg speedWind from/ knotsBaromVisibWave heightAir tempDewpointWater temp
2018-Apr-22 23:09N 34°43' E 137°14'0 0.1
2018-Apr-22 22:58N 34°43' E 137°14'0 0.0
2018-Apr-22 22:20N 34°43' E 137°14'0 0.0
2018-Apr-22 21:49N 34°43' E 137°14'0 0.0
2018-Apr-22 21:14N 34°43' E 137°14'0 0.0
2018-Apr-22 18:17N 34°43' E 137°14'0 0.0
2018-Apr-22 18:00N 34°43' E 137°14'0 0.0
2018-Apr-22 16:30N 34°43' E 137°14'0 0.0
2018-Apr-22 15:49N 34°43' E 137°14'0 0.0
2018-Apr-22 15:18N 34°43' E 137°14'0 0.0
2018-Apr-22 14:55N 34°43' E 137°14'0 0.0
2018-Apr-22 14:30N 34°43' E 137°14'0 0.0
2018-Apr-22 13:59N 34°43' E 137°14'0 0.0
2018-Apr-22 13:30N 34°43' E 137°14'0 0.1
2018-Apr-22 12:41N 34°43' E 137°14'0 0.0
2018-Apr-22 04:46N 34°43' E 137°14'0 0.0
2018-Apr-22 04:15N 34°43' E 137°14'0 0.0
2018-Apr-22 04:00N 34°43' E 137°14'0 0.0
2018-Apr-22 03:21N 34°43' E 137°14'0 0.0
2018-Apr-22 02:56N 34°43' E 137°14'0 0.0
2018-Apr-21 18:56N 34°43' E 137°14'0 0.0
2018-Apr-21 17:24N 34°43' E 137°14'0 0.0
2018-Apr-21 16:53N 34°43' E 137°14'0 0.0
2018-Apr-21 16:30N 34°43' E 137°14'0 0.0
2018-Apr-21 16:00N 34°43' E 137°14'0 0.0
2018-Apr-21 15:18N 34°43' E 137°14'0 0.0
2018-Apr-21 14:59N 34°43' E 137°14'0 0.0
2018-Apr-21 14:30N 34°43' E 137°14'0 0.0
2018-Apr-21 13:59N 34°43' E 137°14'0 0.0
2018-Apr-21 13:28N 34°43' E 137°14'0 0.0
2018-Apr-21 12:44N 34°43' E 137°14'0 0.0
2018-Apr-21 12:29N 34°43' E 137°14'0 0.0
2018-Apr-21 04:51N 34°43' E 137°14'0 0.0
2018-Apr-21 04:27N 34°43' E 137°14'2 5.0
2018-Apr-21 03:59N 34°42' E 137°11'511.1
2018-Apr-21 03:30N 34°40' E 137°05'510.5
2018-Apr-21 03:00N 34°38' E 136°59'9 8.1
2018-Apr-21 01:51N 34°33' E 137°09'411.2
2018-Apr-21 01:30N 34°34' E 137°14'5111.6
2018-Apr-20 21:06N 34°33' E 138°16'2711.6
2018-Apr-20 18:47N 34°35' E 138°49'511.3
2018-Apr-20 18:21N 34°36' E 138°55'1610.9
2018-Apr-20 16:55N 34°47' E 139°08'2111.0
2018-Apr-20 15:01N 34°60' E 139°28'111.1
2018-Apr-20 14:55N 35°00' E 139°29'511.8
2018-Apr-20 14:30N 35°03' E 139°34'611.8
2018-Apr-20 14:00N 35°06' E 139°40'611.6
2018-Apr-20 13:30N 35°10' E 139°45'611.5
2018-Apr-20 13:00N 35°16' E 139°46'611.9
2018-Apr-20 12:30N 35°21' E 139°42'510.7
2018-Apr-20 12:00N 35°26' E 139°46'611.4
2018-Apr-20 11:30N 35°29' E 139°51'611.3
2018-Apr-20 11:00N 35°34' E 139°56'510.6
2018-Apr-20 10:30N 35°38' E 139°59'1 0.0
2018-Apr-19 05:30N 35°39' E 139°59'510.4
2018-Apr-19 05:01N 35°35' E 140°03'3 5.6
2018-Apr-19 04:29N 35°34' E 140°07'0 0.0
2018-Apr-19 04:00N 35°34' E 140°07'0 0.0
2018-Apr-19 03:30N 35°34' E 140°07'0 0.0
2018-Apr-19 03:00N 35°34' E 140°07'0 0.0
2018-Apr-19 02:30N 35°34' E 140°07'0 0.0
2018-Apr-19 02:00N 35°34' E 140°07'0 0.0
2018-Apr-19 01:30N 35°34' E 140°07'0 0.0
2018-Apr-19 01:00N 35°34' E 140°07'0 0.0
2018-Apr-19 00:30N 35°34' E 140°07'0 0.0
2018-Apr-19 00:00N 35°34' E 140°07'0 0.0
2018-Apr-18 23:30N 35°34' E 140°07'0 0.0
2018-Apr-18 23:01N 35°34' E 140°07'2 3.3
2018-Apr-18 22:30N 35°35' E 140°05'1 2.9
2018-Apr-18 22:00N 35°35' E 140°04'0 0.0
2018-Apr-18 21:30N 35°35' E 140°04'0 0.0
2018-Apr-18 21:00N 35°35' E 140°04'0 0.0
2018-Apr-18 20:30N 35°35' E 140°04'0 0.2
2018-Apr-18 20:00N 35°35' E 140°04'510.8
2018-Apr-18 19:30N 35°32' E 139°58'611.5
2018-Apr-18 19:00N 35°29' E 139°52'611.6
2018-Apr-18 18:30N 35°25' E 139°47'611.9
2018-Apr-18 18:00N 35°19' E 139°44'611.2
2018-Apr-18 17:30N 35°14' E 139°47'511.0
2018-Apr-18 17:00N 35°09' E 139°46'611.2
2018-Apr-18 16:30N 35°04' E 139°42'611.1
2018-Apr-18 16:00N 35°00' E 139°37'612.1
2018-Apr-18 15:30N 34°57' E 139°31'612.3
2018-Apr-18 15:00N 34°53' E 139°25'712.3
2018-Apr-18 14:28N 34°49' E 139°18'612.2
2018-Apr-18 13:59N 34°46' E 139°13'611.9
2018-Apr-18 13:30N 34°42' E 139°07'611.6
2018-Apr-18 12:58N 34°38' E 139°01'511.2
2018-Apr-18 12:30N 34°35' E 138°56'510.7
2018-Apr-18 12:01N 34°34' E 138°50'610.6
2018-Apr-18 11:28N 34°34' E 138°43'711.1
2018-Apr-18 10:50N 34°33' E 138°34'611.1
2018-Apr-18 10:16N 34°32' E 138°26'411.0
2018-Apr-18 09:53N 34°32' E 138°21'410.5
2018-Apr-18 09:30N 34°31' E 138°17'610.1
2018-Apr-18 08:56N 34°31' E 138°10'611.1
2018-Apr-18 08:24N 34°30' E 138°03'6510.4
2018-Apr-18 02:11N 34°10' E 136°48'3 9.2
2018-Apr-18 01:52N 34°09' E 136°45'4 8.6
2018-Apr-18 01:25N 34°07' E 136°41'14 9.0
2018-Apr-17 23:52N 34°00' E 136°26'75 8.1
2018-Apr-17 14:41N 33°43' E 134°59'210.3
2018-Apr-17 14:30N 33°43' E 134°57'155 6.6
2018-Apr-16 14:51N 33°19' E 131°53'513.5
2018-Apr-16 14:29N 33°24' E 131°51'912.9
2018-Apr-16 13:47N 33°32' E 131°48'413.4
2018-Apr-16 13:30N 33°36' E 131°46'713.4
2018-Apr-16 13:00N 33°41' E 131°41'713.3
2018-Apr-16 12:30N 33°44' E 131°34'612.4
2018-Apr-16 12:00N 33°46' E 131°27'612.2
2018-Apr-16 11:30N 33°48' E 131°20'611.8
2018-Apr-16 11:01N 33°50' E 131°13'510.8
2018-Apr-16 10:30N 33°54' E 131°09'4 8.6
2018-Apr-16 10:00N 33°58' E 131°10'0 0.0
2018-Apr-16 09:30N 33°58' E 131°10'0 0.0
2018-Apr-16 09:00N 33°58' E 131°10'0 0.0
2018-Apr-16 08:30N 33°58' E 131°10'0 0.0
2018-Apr-16 08:00N 33°58' E 131°10'0 0.0
2018-Apr-16 07:30N 33°58' E 131°10'0 0.0
2018-Apr-16 07:01N 33°58' E 131°10'0 0.0
2018-Apr-16 06:28N 33°58' E 131°10'0 0.0
2018-Apr-16 06:00N 33°58' E 131°10'0 0.0
2018-Apr-16 05:30N 33°58' E 131°10'0 0.0
2018-Apr-16 05:00N 33°58' E 131°10'0 0.0
2018-Apr-16 04:30N 33°58' E 131°10'0 0.0
2018-Apr-16 04:00N 33°58' E 131°10'0 0.0
2018-Apr-16 03:31N 33°58' E 131°10'0 0.0
2018-Apr-16 03:00N 33°58' E 131°10'0 0.0
2018-Apr-16 02:30N 33°58' E 131°10'0 0.0
2018-Apr-16 02:01N 33°58' E 131°10'0 0.0
2018-Apr-16 01:30N 33°58' E 131°10'0 0.0
2018-Apr-16 01:00N 33°58' E 131°10'0 0.0
2018-Apr-16 00:30N 33°58' E 131°10'0 0.0
2018-Apr-16 00:00N 33°58' E 131°10'0 0.0
2018-Apr-15 23:29N 33°58' E 131°10'0 0.0
2018-Apr-15 23:00N 33°58' E 131°10'0 0.0
2018-Apr-15 22:30N 33°58' E 131°10'0 0.0
2018-Apr-15 22:00N 33°58' E 131°10'0 0.0
2018-Apr-15 21:30N 33°58' E 131°10'0 0.0
2018-Apr-15 21:00N 33°58' E 131°10'0 0.0
2018-Apr-15 20:31N 33°58' E 131°10'0 0.0
2018-Apr-15 20:00N 33°58' E 131°10'0 0.0
2018-Apr-15 19:31N 33°58' E 131°10'0 0.0
2018-Apr-15 19:01N 33°58' E 131°10'0 0.0
2018-Apr-15 18:30N 33°58' E 131°10'0 0.0
2018-Apr-15 18:00N 33°58' E 131°10'0 0.0
2018-Apr-15 17:30N 33°58' E 131°10'0 0.0
2018-Apr-15 17:01N 33°58' E 131°10'0 0.0
2018-Apr-15 16:30N 33°58' E 131°10'0 0.0
2018-Apr-15 16:00N 33°58' E 131°10'0 0.0
2018-Apr-15 15:31N 33°58' E 131°10'0 0.0
2018-Apr-15 15:01N 33°58' E 131°10'0 0.0
2018-Apr-15 14:30N 33°58' E 131°10'0 0.0
2018-Apr-15 14:00N 33°58' E 131°10'0 0.0
2018-Apr-15 13:30N 33°58' E 131°10'0 0.0
2018-Apr-15 13:00N 33°58' E 131°10'0 0.0
2018-Apr-15 12:30N 33°58' E 131°10'0 0.0
2018-Apr-15 12:00N 33°58' E 131°10'0 0.0
2018-Apr-15 11:30N 33°58' E 131°10'0 0.0
2018-Apr-15 11:00N 33°58' E 131°10'0 0.0
2018-Apr-15 10:31N 33°58' E 131°10'0 0.0
2018-Apr-15 10:00N 33°58' E 131°10'0 0.0
2018-Apr-15 09:30N 33°58' E 131°10'0 0.0
2018-Apr-15 09:00N 33°58' E 131°10'0 0.0
2018-Apr-15 08:31N 33°58' E 131°10'0 0.0
2018-Apr-15 08:00N 33°58' E 131°10'2 4.8
2018-Apr-15 07:31N 33°57' E 131°08'1 2.2
2018-Apr-15 07:00N 33°55' E 131°08'0 0.0
2018-Apr-15 06:30N 33°55' E 131°08'0 0.0
2018-Apr-15 06:00N 33°55' E 131°08'0 0.1
2018-Apr-15 05:30N 33°55' E 131°08'0 0.1
2018-Apr-15 05:01N 33°55' E 131°08'1 1.3
2018-Apr-15 04:30N 33°55' E 131°09'510.3
2018-Apr-15 04:00N 33°52' E 131°14'510.4
2018-Apr-15 03:30N 33°51' E 131°20'510.6
2018-Apr-15 03:00N 33°50' E 131°26'510.8
2018-Apr-15 02:30N 33°48' E 131°32'510.7
2018-Apr-15 02:00N 33°47' E 131°39'611.0
2018-Apr-15 01:30N 33°46' E 131°45'611.2
2018-Apr-15 01:00N 33°45' E 131°52'1810.7
2018-Apr-14 23:19N 33°43' E 132°13'411.1
2018-Apr-14 22:57N 33°45' E 132°18'511.1
2018-Apr-14 22:29N 33°46' E 132°24'611.0
2018-Apr-14 21:56N 33°49' E 132°30'510.9
2018-Apr-14 21:30N 33°52' E 132°35'610.8
2018-Apr-14 20:58N 33°56' E 132°40'511.0
2018-Apr-14 20:30N 33°60' E 132°44'8610.2
2018-Apr-14 12:08N 34°21' E 134°25'111.6
2018-Apr-14 12:00N 34°20' E 134°26'711.8
2018-Apr-14 11:27N 34°18' E 134°33'611.6
2018-Apr-14 10:57N 34°14' E 134°39'912.5
2018-Apr-14 10:13N 34°07' E 134°46'212.1
2018-Apr-14 10:00N 34°05' E 134°48'712.3
2018-Apr-14 09:26N 33°60' E 134°54'612.2
2018-Apr-14 08:56N 33°55' E 134°59'16810.1
2018-Apr-13 16:17N 34°34' E 138°16'2711.3
2018-Apr-13 13:53N 34°35' E 138°49'510.2
2018-Apr-13 13:26N 34°36' E 138°54'1710.7
2018-Apr-13 11:47N 34°48' E 139°10'810.9
2018-Apr-13 11:02N 34°53' E 139°17'1 9.7
2018-Apr-13 10:56N 34°54' E 139°18'6 9.3
2018-Apr-13 10:17N 34°57' E 139°24'3 9.5
2018-Apr-13 10:00N 34°59' E 139°26'5 9.4
2018-Apr-13 09:29N 35°02' E 139°31'510.2
2018-Apr-13 09:00N 35°05' E 139°36'611.3
2018-Apr-13 08:30N 35°08' E 139°42'510.9
2018-Apr-13 08:00N 35°13' E 139°44'1 2.5
2018-Apr-13 07:30N 35°13' E 139°43'0 0.0
2018-Apr-13 06:59N 35°13' E 139°43'0 0.0
2018-Apr-13 06:30N 35°13' E 139°43'0 0.0
2018-Apr-13 06:00N 35°13' E 139°43'0 0.0
2018-Apr-13 05:30N 35°13' E 139°43'0 0.0
2018-Apr-13 05:00N 35°13' E 139°43'0 0.0
2018-Apr-13 04:30N 35°13' E 139°43'0 0.0
2018-Apr-13 04:00N 35°13' E 139°43'0 0.0
2018-Apr-13 03:30N 35°13' E 139°43'0 0.0
2018-Apr-13 03:00N 35°13' E 139°43'0 0.0
2018-Apr-13 02:30N 35°13' E 139°43'0 0.0
2018-Apr-13 02:00N 35°13' E 139°43'0 0.0
2018-Apr-13 01:30N 35°13' E 139°43'0 0.0
2018-Apr-13 01:00N 35°13' E 139°43'0 0.0
2018-Apr-13 00:30N 35°13' E 139°43'0 0.0
2018-Apr-13 00:00N 35°13' E 139°43'0 0.0
2018-Apr-12 23:30N 35°13' E 139°43'  

Dump ship's entire track history